sensor_id;sensor_type;location;lat;lon;timestamp;pressure;altitude;pressure_sealevel;temperature;humidity
70027;BME280;57506;50.092;15.804;2023-04-12T00:00:58;98753.75;;;2.08;100.00
70027;BME280;57506;50.092;15.804;2023-04-12T00:03:23;98757.41;;;2.07;100.00
70027;BME280;57506;50.092;15.804;2023-04-12T00:05:49;98760.06;;;2.07;100.00
70027;BME280;57506;50.092;15.804;2023-04-12T00:08:19;98753.34;;;2.03;100.00
70027;BME280;57506;50.092;15.804;2023-04-12T00:10:51;98751.16;;;1.98;100.00
70027;BME280;57506;50.092;15.804;2023-04-12T00:13:17;98743.66;;;1.94;100.00
70027;BME280;57506;50.092;15.804;2023-04-12T00:15:42;98741.28;;;1.91;100.00
70027;BME280;57506;50.092;15.804;2023-04-12T00:18:08;98738.91;;;1.88;100.00
70027;BME280;57506;50.092;15.804;2023-04-12T00:20:33;98737.41;;;1.85;100.00
70027;BME280;57506;50.092;15.804;2023-04-12T00:22:59;98720.53;;;1.77;100.00
70027;BME280;57506;50.092;15.804;2023-04-12T00:25:25;98726.63;;;1.87;100.00
70027;BME280;57506;50.092;15.804;2023-04-12T00:27:50;98733.75;;;1.86;100.00
70027;BME280;57506;50.092;15.804;2023-04-12T00:30:16;98718.25;;;1.82;100.00
70027;BME280;57506;50.092;15.804;2023-04-12T00:32:41;98719.47;;;1.69;100.00
70027;BME280;57506;50.092;15.804;2023-04-12T00:35:07;98726.38;;;1.62;100.00
70027;BME280;57506;50.092;15.804;2023-04-12T00:37:33;98728.91;;;1.54;100.00
70027;BME280;57506;50.092;15.804;2023-04-12T00:40:00;98713.56;;;1.48;100.00
70027;BME280;57506;50.092;15.804;2023-04-12T00:42:26;98721.19;;;1.33;100.00
70027;BME280;57506;50.092;15.804;2023-04-12T00:44:52;98709.78;;;1.23;100.00
70027;BME280;57506;50.092;15.804;2023-04-12T00:47:17;98710.78;;;1.22;100.00
70027;BME280;57506;50.092;15.804;2023-04-12T00:49:43;98699.59;;;1.19;100.00
70027;BME280;57506;50.092;15.804;2023-04-12T00:52:12;98699.44;;;1.30;100.00
70027;BME280;57506;50.092;15.804;2023-04-12T00:54:41;98680.38;;;1.34;100.00
70027;BME280;57506;50.092;15.804;2023-04-12T00:57:06;98684.63;;;1.27;100.00
70027;BME280;57506;50.092;15.804;2023-04-12T00:59:32;98696.22;;;1.26;100.00
70027;BME280;57506;50.092;15.804;2023-04-12T01:01:58;98683.25;;;1.23;100.00
70027;BME280;57506;50.092;15.804;2023-04-12T01:04:25;98685.06;;;1.23;100.00
70027;BME280;57506;50.092;15.804;2023-04-12T01:07:01;98682.97;;;1.26;100.00
70027;BME280;57506;50.092;15.804;2023-04-12T01:09:49;98684.03;;;1.33;100.00
70027;BME280;57506;50.092;15.804;2023-04-12T01:17:31;98694.81;;;0.48;100.00
70027;BME280;57506;50.092;15.804;2023-04-12T01:20:14;98694.84;;;0.29;100.00
70027;BME280;57506;50.092;15.804;2023-04-12T01:25:39;98693.31;;;0.26;100.00
70027;BME280;57506;50.092;15.804;2023-04-12T01:28:14;98680.19;;;0.25;100.00
70027;BME280;57506;50.092;15.804;2023-04-12T01:30:40;98670.19;;;-0.01;100.00
70027;BME280;57506;50.092;15.804;2023-04-12T01:33:09;98663.78;;;-0.08;100.00
70027;BME280;57506;50.092;15.804;2023-04-12T01:35:36;98667.53;;;-0.29;100.00
70027;BME280;57506;50.092;15.804;2023-04-12T01:38:03;98669.59;;;-0.43;100.00
70027;BME280;57506;50.092;15.804;2023-04-12T01:40:30;98661.78;;;-0.54;100.00
70027;BME280;57506;50.092;15.804;2023-04-12T01:45:30;98672.19;;;-0.72;100.00
70027;BME280;57506;50.092;15.804;2023-04-12T01:47:56;98662.84;;;-0.76;100.00
70027;BME280;57506;50.092;15.804;2023-04-12T01:50:26;98660.78;;;-0.72;100.00
70027;BME280;57506;50.092;15.804;2023-04-12T01:53:02;98654.13;;;-0.66;100.00
70027;BME280;57506;50.092;15.804;2023-04-12T01:55:33;98638.53;;;-0.31;100.00
70027;BME280;57506;50.092;15.804;2023-04-12T01:58:02;98634.22;;;-0.03;100.00
70027;BME280;57506;50.092;15.804;2023-04-12T02:00:29;98631.13;;;0.11;100.00
70027;BME280;57506;50.092;15.804;2023-04-12T02:02:55;98626.69;;;0.12;100.00
70027;BME280;57506;50.092;15.804;2023-04-12T02:05:22;98620.00;;;-0.02;100.00
70027;BME280;57506;50.092;15.804;2023-04-12T02:07:49;98621.81;;;-0.12;100.00
70027;BME280;57506;50.092;15.804;2023-04-12T02:10:15;98629.78;;;-0.22;100.00
70027;BME280;57506;50.092;15.804;2023-04-12T02:12:40;98610.94;;;-0.28;100.00
70027;BME280;57506;50.092;15.804;2023-04-12T02:15:06;98608.03;;;-0.35;100.00
70027;BME280;57506;50.092;15.804;2023-04-12T02:17:33;98610.09;;;-0.58;100.00
70027;BME280;57506;50.092;15.804;2023-04-12T02:20:01;98601.19;;;-0.66;100.00
70027;BME280;57506;50.092;15.804;2023-04-12T02:22:26;98600.75;;;-0.72;100.00
70027;BME280;57506;50.092;15.804;2023-04-12T02:24:51;98598.53;;;-0.76;100.00
70027;BME280;57506;50.092;15.804;2023-04-12T02:27:17;98597.25;;;-0.91;100.00
70027;BME280;57506;50.092;15.804;2023-04-12T02:29:43;98600.16;;;-0.94;100.00
70027;BME280;57506;50.092;15.804;2023-04-12T02:32:09;98594.34;;;-0.88;100.00
70027;BME280;57506;50.092;15.804;2023-04-12T02:34:35;98601.97;;;-0.95;100.00
70027;BME280;57506;50.092;15.804;2023-04-12T02:37:02;98595.69;;;-0.94;100.00
70027;BME280;57506;50.092;15.804;2023-04-12T02:39:28;98605.56;;;-1.06;100.00
70027;BME280;57506;50.092;15.804;2023-04-12T02:41:56;98601.78;;;-1.13;100.00
70027;BME280;57506;50.092;15.804;2023-04-12T02:44:22;98580.28;;;-0.98;100.00
70027;BME280;57506;50.092;15.804;2023-04-12T02:46:47;98574.97;;;-0.98;100.00
70027;BME280;57506;50.092;15.804;2023-04-12T02:49:13;98571.50;;;-0.89;100.00
70027;BME280;57506;50.092;15.804;2023-04-12T02:51:38;98561.88;;;-0.90;100.00
70027;BME280;57506;50.092;15.804;2023-04-12T02:54:04;98582.63;;;-0.95;100.00
70027;BME280;57506;50.092;15.804;2023-04-12T02:56:30;98575.66;;;-0.96;100.00
70027;BME280;57506;50.092;15.804;2023-04-12T02:58:55;98573.72;;;-0.94;100.00
70027;BME280;57506;50.092;15.804;2023-04-12T03:01:21;98570.00;;;-0.82;100.00
70027;BME280;57506;50.092;15.804;2023-04-12T03:03:46;98554.25;;;-0.84;100.00
70027;BME280;57506;50.092;15.804;2023-04-12T03:06:12;98563.31;;;-0.86;100.00
70027;BME280;57506;50.092;15.804;2023-04-12T03:08:37;98565.09;;;-0.87;100.00
70027;BME280;57506;50.092;15.804;2023-04-12T03:11:04;98559.78;;;-1.06;100.00
70027;BME280;57506;50.092;15.804;2023-04-12T03:13:30;98560.09;;;-0.90;100.00
70027;BME280;57506;50.092;15.804;2023-04-12T03:15:57;98561.47;;;-0.95;100.00
70027;BME280;57506;50.092;15.804;2023-04-12T03:18:23;98561.84;;;-1.10;100.00
70027;BME280;57506;50.092;15.804;2023-04-12T03:20:49;98567.69;;;-1.16;100.00
70027;BME280;57506;50.092;15.804;2023-04-12T03:23:16;98563.91;;;-1.32;100.00
70027;BME280;57506;50.092;15.804;2023-04-12T03:25:43;98568.00;;;-1.49;100.00
70027;BME280;57506;50.092;15.804;2023-04-12T03:28:09;98569.50;;;-1.56;100.00
70027;BME280;57506;50.092;15.804;2023-04-12T03:30:34;98571.75;;;-1.52;100.00
70027;BME280;57506;50.092;15.804;2023-04-12T03:33:00;98569.69;;;-1.48;100.00
70027;BME280;57506;50.092;15.804;2023-04-12T03:35:25;98565.63;;;-1.52;100.00
70027;BME280;57506;50.092;15.804;2023-04-12T03:37:51;98563.81;;;-1.52;100.00
70027;BME280;57506;50.092;15.804;2023-04-12T03:40:16;98560.47;;;-1.54;100.00
70027;BME280;57506;50.092;15.804;2023-04-12T03:42:42;98569.69;;;-1.48;100.00
70027;BME280;57506;50.092;15.804;2023-04-12T03:45:07;98573.69;;;-1.54;100.00
70027;BME280;57506;50.092;15.804;2023-04-12T03:47:33;98564.59;;;-1.61;100.00
70027;BME280;57506;50.092;15.804;2023-04-12T03:50:03;98562.91;;;-1.71;100.00
70027;BME280;57506;50.092;15.804;2023-04-12T03:52:33;98564.56;;;-1.70;100.00
70027;BME280;57506;50.092;15.804;2023-04-12T03:54:58;98556.00;;;-1.63;100.00
70027;BME280;57506;50.092;15.804;2023-04-12T03:57:24;98562.19;;;-1.73;100.00
70027;BME280;57506;50.092;15.804;2023-04-12T03:59:50;98562.16;;;-1.83;100.00
70027;BME280;57506;50.092;15.804;2023-04-12T04:02:16;98556.13;;;-1.95;100.00
70027;BME280;57506;50.092;15.804;2023-04-12T04:04:41;98554.59;;;-1.97;100.00
70027;BME280;57506;50.092;15.804;2023-04-12T04:07:07;98546.66;;;-1.97;100.00
70027;BME280;57506;50.092;15.804;2023-04-12T04:09:33;98544.56;;;-1.94;100.00
70027;BME280;57506;50.092;15.804;2023-04-12T04:11:58;98544.09;;;-1.78;100.00
70027;BME280;57506;50.092;15.804;2023-04-12T04:14:24;98545.19;;;-1.50;100.00
70027;BME280;57506;50.092;15.804;2023-04-12T04:16:49;98544.69;;;-1.34;100.00
70027;BME280;57506;50.092;15.804;2023-04-12T04:19:15;98544.56;;;-1.33;100.00
70027;BME280;57506;50.092;15.804;2023-04-12T04:21:40;98552.75;;;-1.36;100.00
70027;BME280;57506;50.092;15.804;2023-04-12T04:24:08;98550.25;;;-1.28;100.00
70027;BME280;57506;50.092;15.804;2023-04-12T04:26:35;98547.25;;;-1.14;100.00
70027;BME280;57506;50.092;15.804;2023-04-12T04:29:03;98544.72;;;-1.25;100.00
70027;BME280;57506;50.092;15.804;2023-04-12T04:31:29;98553.47;;;-1.34;100.00
70027;BME280;57506;50.092;15.804;2023-04-12T04:34:04;98541.47;;;-1.48;100.00
70027;BME280;57506;50.092;15.804;2023-04-12T04:36:33;98547.59;;;-1.37;100.00
70027;BME280;57506;50.092;15.804;2023-04-12T04:38:59;98532.78;;;-1.10;100.00
70027;BME280;57506;50.092;15.804;2023-04-12T04:41:25;98525.41;;;-1.06;100.00
70027;BME280;57506;50.092;15.804;2023-04-12T04:43:51;98537.38;;;-1.02;100.00
70027;BME280;57506;50.092;15.804;2023-04-12T04:46:18;98536.28;;;-0.99;100.00
70027;BME280;57506;50.092;15.804;2023-04-12T04:48:46;98539.06;;;-1.01;100.00
70027;BME280;57506;50.092;15.804;2023-04-12T04:51:12;98551.19;;;-0.98;100.00
70027;BME280;57506;50.092;15.804;2023-04-12T04:53:39;98548.38;;;-0.97;100.00
70027;BME280;57506;50.092;15.804;2023-04-12T04:56:05;98548.38;;;-0.97;100.00
70027;BME280;57506;50.092;15.804;2023-04-12T04:58:31;98551.72;;;-0.95;100.00
70027;BME280;57506;50.092;15.804;2023-04-12T05:00:57;98555.06;;;-1.02;100.00
70027;BME280;57506;50.092;15.804;2023-04-12T05:03:24;98544.47;;;-1.02;100.00
70027;BME280;57506;50.092;15.804;2023-04-12T05:05:54;98548.81;;;-1.01;100.00
70027;BME280;57506;50.092;15.804;2023-04-12T05:08:23;98547.81;;;-1.00;100.00
70027;BME280;57506;50.092;15.804;2023-04-12T05:10:51;98537.78;;;-1.07;100.00
70027;BME280;57506;50.092;15.804;2023-04-12T05:13:18;98535.69;;;-1.13;100.00
70027;BME280;57506;50.092;15.804;2023-04-12T05:15:43;98534.44;;;-1.09;100.00
70027;BME280;57506;50.092;15.804;2023-04-12T05:18:09;98543.78;;;-1.04;100.00
70027;BME280;57506;50.092;15.804;2023-04-12T05:20:37;98548.66;;;-1.00;100.00
70027;BME280;57506;50.092;15.804;2023-04-12T05:23:03;98540.88;;;-0.92;100.00
70027;BME280;57506;50.092;15.804;2023-04-12T05:25:28;98540.06;;;-0.73;100.00
70027;BME280;57506;50.092;15.804;2023-04-12T05:27:54;98530.56;;;-0.47;100.00
70027;BME280;57506;50.092;15.804;2023-04-12T05:30:20;98547.00;;;-0.24;100.00
70027;BME280;57506;50.092;15.804;2023-04-12T05:32:45;98541.91;;;0.02;100.00
70027;BME280;57506;50.092;15.804;2023-04-12T05:35:10;98540.13;;;0.40;100.00
70027;BME280;57506;50.092;15.804;2023-04-12T05:37:36;98542.69;;;0.31;100.00
70027;BME280;57506;50.092;15.804;2023-04-12T05:40:02;98551.13;;;0.45;100.00
70027;BME280;57506;50.092;15.804;2023-04-12T05:42:30;98532.78;;;0.61;100.00
70027;BME280;57506;50.092;15.804;2023-04-12T05:44:56;98536.91;;;0.73;100.00
70027;BME280;57506;50.092;15.804;2023-04-12T05:47:21;98531.53;;;0.83;100.00
70027;BME280;57506;50.092;15.804;2023-04-12T05:49:47;98536.50;;;0.95;100.00
70027;BME280;57506;50.092;15.804;2023-04-12T05:52:12;98539.22;;;1.03;100.00
70027;BME280;57506;50.092;15.804;2023-04-12T05:54:38;98534.00;;;1.12;100.00
70027;BME280;57506;50.092;15.804;2023-04-12T05:57:03;98542.13;;;1.28;100.00
70027;BME280;57506;50.092;15.804;2023-04-12T05:59:28;98537.66;;;1.28;100.00
70027;BME280;57506;50.092;15.804;2023-04-12T06:01:55;98538.78;;;1.61;100.00
70027;BME280;57506;50.092;15.804;2023-04-12T06:04:21;98532.81;;;1.59;100.00
70027;BME280;57506;50.092;15.804;2023-04-12T06:06:46;98530.63;;;1.81;100.00
70027;BME280;57506;50.092;15.804;2023-04-12T06:09:12;98528.72;;;1.91;100.00
70027;BME280;57506;50.092;15.804;2023-04-12T06:11:39;98523.81;;;2.04;100.00
70027;BME280;57506;50.092;15.804;2023-04-12T06:14:04;98532.53;;;2.14;100.00
70027;BME280;57506;50.092;15.804;2023-04-12T06:16:30;98535.63;;;2.35;100.00
70027;BME280;57506;50.092;15.804;2023-04-12T06:18:55;98544.16;;;2.47;100.00
70027;BME280;57506;50.092;15.804;2023-04-12T06:21:21;98550.00;;;2.51;100.00
70027;BME280;57506;50.092;15.804;2023-04-12T06:23:47;98543.25;;;2.64;100.00
70027;BME280;57506;50.092;15.804;2023-04-12T06:26:12;98540.19;;;2.85;100.00
70027;BME280;57506;50.092;15.804;2023-04-12T06:28:38;98550.53;;;2.88;100.00
70027;BME280;57506;50.092;15.804;2023-04-12T06:31:04;98536.91;;;2.99;100.00
70027;BME280;57506;50.092;15.804;2023-04-12T06:33:29;98535.63;;;3.20;100.00
70027;BME280;57506;50.092;15.804;2023-04-12T06:35:55;98549.63;;;3.30;100.00
70027;BME280;57506;50.092;15.804;2023-04-12T06:38:20;98558.31;;;3.48;100.00
70027;BME280;57506;50.092;15.804;2023-04-12T06:40:46;98548.50;;;3.57;100.00
70027;BME280;57506;50.092;15.804;2023-04-12T06:43:12;98537.34;;;3.61;100.00
70027;BME280;57506;50.092;15.804;2023-04-12T06:45:37;98538.03;;;3.71;100.00
70027;BME280;57506;50.092;15.804;2023-04-12T06:48:03;98541.19;;;3.83;100.00
70027;BME280;57506;50.092;15.804;2023-04-12T06:50:28;98561.84;;;4.05;100.00
70027;BME280;57506;50.092;15.804;2023-04-12T06:52:54;98578.66;;;4.22;100.00
70027;BME280;57506;50.092;15.804;2023-04-12T06:55:20;98591.31;;;4.20;100.00
70027;BME280;57506;50.092;15.804;2023-04-12T06:57:45;98607.97;;;4.14;100.00
70027;BME280;57506;50.092;15.804;2023-04-12T07:00:12;98608.63;;;4.32;100.00
70027;BME280;57506;50.092;15.804;2023-04-12T07:02:37;98598.28;;;4.45;100.00
70027;BME280;57506;50.092;15.804;2023-04-12T07:05:04;98600.75;;;4.55;100.00
70027;BME280;57506;50.092;15.804;2023-04-12T07:07:30;98595.91;;;4.67;100.00
70027;BME280;57506;50.092;15.804;2023-04-12T07:09:55;98603.41;;;4.63;100.00
70027;BME280;57506;50.092;15.804;2023-04-12T07:12:21;98620.91;;;4.74;100.00
70027;BME280;57506;50.092;15.804;2023-04-12T07:14:47;98616.53;;;4.81;100.00
70027;BME280;57506;50.092;15.804;2023-04-12T07:17:12;98632.53;;;4.89;100.00
70027;BME280;57506;50.092;15.804;2023-04-12T07:19:39;98628.97;;;5.05;100.00
70027;BME280;57506;50.092;15.804;2023-04-12T07:22:06;98617.78;;;5.09;100.00
70027;BME280;57506;50.092;15.804;2023-04-12T07:24:32;98612.03;;;5.20;100.00
70027;BME280;57506;50.092;15.804;2023-04-12T07:26:57;98619.06;;;5.21;100.00
70027;BME280;57506;50.092;15.804;2023-04-12T07:29:23;98623.16;;;5.40;100.00
70027;BME280;57506;50.092;15.804;2023-04-12T07:31:48;98614.53;;;5.22;100.00
70027;BME280;57506;50.092;15.804;2023-04-12T07:34:14;98614.03;;;5.57;100.00
70027;BME280;57506;50.092;15.804;2023-04-12T07:36:40;98616.88;;;5.56;100.00
70027;BME280;57506;50.092;15.804;2023-04-12T07:39:08;98619.88;;;5.61;100.00
70027;BME280;57506;50.092;15.804;2023-04-12T07:41:36;98609.16;;;5.92;100.00
70027;BME280;57506;50.092;15.804;2023-04-12T07:44:02;98615.34;;;5.92;100.00
70027;BME280;57506;50.092;15.804;2023-04-12T07:46:28;98606.63;;;5.99;100.00
70027;BME280;57506;50.092;15.804;2023-04-12T07:48:53;98603.06;;;6.21;100.00
70027;BME280;57506;50.092;15.804;2023-04-12T07:51:19;98601.56;;;6.41;100.00
70027;BME280;57506;50.092;15.804;2023-04-12T07:53:45;98599.56;;;6.20;100.00
70027;BME280;57506;50.092;15.804;2023-04-12T07:56:13;98615.97;;;6.55;100.00
70027;BME280;57506;50.092;15.804;2023-04-12T07:58:39;98603.94;;;6.36;100.00
70027;BME280;57506;50.092;15.804;2023-04-12T08:01:04;98598.25;;;6.54;100.00
70027;BME280;57506;50.092;15.804;2023-04-12T08:03:31;98601.41;;;6.57;100.00
70027;BME280;57506;50.092;15.804;2023-04-12T08:05:57;98600.38;;;6.58;100.00
70027;BME280;57506;50.092;15.804;2023-04-12T08:08:22;98581.94;;;6.78;100.00
70027;BME280;57506;50.092;15.804;2023-04-12T08:10:49;98595.69;;;6.90;100.00
70027;BME280;57506;50.092;15.804;2023-04-12T08:13:15;98591.63;;;6.94;100.00
70027;BME280;57506;50.092;15.804;2023-04-12T08:15:41;98584.44;;;6.94;100.00
70027;BME280;57506;50.092;15.804;2023-04-12T08:18:08;98582.53;;;7.24;100.00
70027;BME280;57506;50.092;15.804;2023-04-12T08:20:34;98582.75;;;6.93;100.00
70027;BME280;57506;50.092;15.804;2023-04-12T08:23:00;98569.88;;;7.18;100.00
70027;BME280;57506;50.092;15.804;2023-04-12T08:25:26;98577.00;;;7.26;100.00
70027;BME280;57506;50.092;15.804;2023-04-12T08:27:52;98583.41;;;7.10;100.00
70027;BME280;57506;50.092;15.804;2023-04-12T08:30:17;98589.66;;;7.02;100.00
70027;BME280;57506;50.092;15.804;2023-04-12T08:33:08;98581.50;;;7.40;100.00
70027;BME280;57506;50.092;15.804;2023-04-12T08:35:33;98561.09;;;7.24;100.00
70027;BME280;57506;50.092;15.804;2023-04-12T08:37:59;98567.34;;;7.46;100.00
70027;BME280;57506;50.092;15.804;2023-04-12T08:40:31;98554.63;;;7.55;100.00
70027;BME280;57506;50.092;15.804;2023-04-12T08:43:00;98561.28;;;7.80;100.00
70027;BME280;57506;50.092;15.804;2023-04-12T08:45:28;98550.03;;;7.70;100.00
70027;BME280;57506;50.092;15.804;2023-04-12T08:47:54;98548.63;;;7.53;100.00
70027;BME280;57506;50.092;15.804;2023-04-12T08:50:20;98551.69;;;7.50;100.00
70027;BME280;57506;50.092;15.804;2023-04-12T08:52:47;98545.06;;;7.67;100.00
70027;BME280;57506;50.092;15.804;2023-04-12T08:55:13;98539.13;;;7.50;100.00
70027;BME280;57506;50.092;15.804;2023-04-12T08:57:40;98544.69;;;7.91;100.00
70027;BME280;57506;50.092;15.804;2023-04-12T09:00:08;98542.38;;;7.88;100.00
70027;BME280;57506;50.092;15.804;2023-04-12T09:02:35;98534.22;;;7.75;100.00
70027;BME280;57506;50.092;15.804;2023-04-12T09:05:02;98521.81;;;7.95;100.00
70027;BME280;57506;50.092;15.804;2023-04-12T09:07:28;98515.03;;;7.99;100.00
70027;BME280;57506;50.092;15.804;2023-04-12T09:09:56;98529.59;;;8.12;100.00
70027;BME280;57506;50.092;15.804;2023-04-12T09:12:22;98507.78;;;8.21;100.00
70027;BME280;57506;50.092;15.804;2023-04-12T09:17:37;98496.19;;;8.42;100.00
70027;BME280;57506;50.092;15.804;2023-04-12T09:22:40;98476.25;;;8.64;100.00
70027;BME280;57506;50.092;15.804;2023-04-12T09:25:11;98486.47;;;8.75;100.00
70027;BME280;57506;50.092;15.804;2023-04-12T09:27:47;98479.81;;;8.78;100.00
70027;BME280;57506;50.092;15.804;2023-04-12T09:30:14;98476.69;;;8.68;100.00
70027;BME280;57506;50.092;15.804;2023-04-12T09:32:41;98472.84;;;8.84;100.00
70027;BME280;57506;50.092;15.804;2023-04-12T09:35:07;98470.53;;;8.81;100.00
70027;BME280;57506;50.092;15.804;2023-04-12T09:37:32;98462.47;;;8.81;100.00
70027;BME280;57506;50.092;15.804;2023-04-12T09:40:08;98463.59;;;8.93;100.00
70027;BME280;57506;50.092;15.804;2023-04-12T09:42:49;98450.59;;;9.09;100.00
70027;BME280;57506;50.092;15.804;2023-04-12T09:45:23;98445.66;;;9.06;100.00
70027;BME280;57506;50.092;15.804;2023-04-12T09:47:50;98430.75;;;9.10;100.00
70027;BME280;57506;50.092;15.804;2023-04-12T09:50:21;98431.19;;;9.14;100.00
70027;BME280;57506;50.092;15.804;2023-04-12T09:52:47;98425.66;;;9.35;100.00
70027;BME280;57506;50.092;15.804;2023-04-12T09:55:14;98423.34;;;9.32;100.00
70027;BME280;57506;50.092;15.804;2023-04-12T09:57:42;98411.34;;;9.28;100.00
70027;BME280;57506;50.092;15.804;2023-04-12T10:00:10;98414.69;;;9.50;100.00
70027;BME280;57506;50.092;15.804;2023-04-12T10:02:43;98394.03;;;9.57;100.00
70027;BME280;57506;50.092;15.804;2023-04-12T10:05:10;98392.34;;;9.50;95.60
70027;BME280;57506;50.092;15.804;2023-04-12T10:07:42;98395.25;;;9.48;100.00
70027;BME280;57506;50.092;15.804;2023-04-12T10:10:13;98384.47;;;9.61;98.71
70027;BME280;57506;50.092;15.804;2023-04-12T10:12:40;98386.13;;;9.62;91.89
70027;BME280;57506;50.092;15.804;2023-04-12T10:15:08;98385.91;;;9.77;100.00
70027;BME280;57506;50.092;15.804;2023-04-12T10:17:50;98396.47;;;9.78;97.68
70027;BME280;57506;50.092;15.804;2023-04-12T10:20:17;98390.25;;;10.04;93.40
70027;BME280;57506;50.092;15.804;2023-04-12T10:22:48;98397.66;;;10.09;89.63
70027;BME280;57506;50.092;15.804;2023-04-12T10:25:16;98396.47;;;10.05;84.77
70027;BME280;57506;50.092;15.804;2023-04-12T10:27:43;98395.84;;;9.96;91.64
70027;BME280;57506;50.092;15.804;2023-04-12T10:30:25;98393.56;;;10.20;90.72
70027;BME280;57506;50.092;15.804;2023-04-12T10:38:12;98381.56;;;9.96;76.48
70027;BME280;57506;50.092;15.804;2023-04-12T10:43:37;98371.56;;;10.29;73.55
70027;BME280;57506;50.092;15.804;2023-04-12T10:46:03;98368.41;;;10.45;80.99
70027;BME280;57506;50.092;15.804;2023-04-12T10:51:21;98361.56;;;10.49;77.08
70027;BME280;57506;50.092;15.804;2023-04-12T10:53:50;98357.34;;;10.60;77.21
70027;BME280;57506;50.092;15.804;2023-04-12T10:58:55;98350.81;;;10.88;74.07
70027;BME280;57506;50.092;15.804;2023-04-12T11:01:21;98340.53;;;10.71;71.60
70027;BME280;57506;50.092;15.804;2023-04-12T11:04:16;98341.41;;;10.97;73.70
70027;BME280;57506;50.092;15.804;2023-04-12T11:09:25;98322.91;;;10.69;67.56
70027;BME280;57506;50.092;15.804;2023-04-12T11:14:37;98313.06;;;10.88;75.88
70027;BME280;57506;50.092;15.804;2023-04-12T11:19:39;98310.94;;;11.21;74.91
70027;BME280;57506;50.092;15.804;2023-04-12T11:22:08;98302.19;;;11.26;75.60
70027;BME280;57506;50.092;15.804;2023-04-12T11:24:43;98292.97;;;11.15;74.87
70027;BME280;57506;50.092;15.804;2023-04-12T11:27:09;98289.03;;;11.11;72.15
70027;BME280;57506;50.092;15.804;2023-04-12T11:29:35;98283.44;;;11.12;73.91
70027;BME280;57506;50.092;15.804;2023-04-12T11:32:05;98287.63;;;11.33;71.29
70027;BME280;57506;50.092;15.804;2023-04-12T11:34:34;98270.41;;;11.34;68.04
70027;BME280;57506;50.092;15.804;2023-04-12T11:37:01;98274.63;;;11.48;70.60
70027;BME280;57506;50.092;15.804;2023-04-12T11:39:30;98269.19;;;11.30;67.07
70027;BME280;57506;50.092;15.804;2023-04-12T11:41:55;98261.97;;;11.24;71.08
70027;BME280;57506;50.092;15.804;2023-04-12T11:44:22;98259.94;;;11.19;67.79
70027;BME280;57506;50.092;15.804;2023-04-12T11:46:48;98251.25;;;11.61;73.70
70027;BME280;57506;50.092;15.804;2023-04-12T11:49:18;98246.03;;;11.41;68.96
70027;BME280;57506;50.092;15.804;2023-04-12T11:51:45;98233.66;;;11.76;65.74
70027;BME280;57506;50.092;15.804;2023-04-12T11:54:12;98234.28;;;11.78;68.60
70027;BME280;57506;50.092;15.804;2023-04-12T11:56:38;98228.91;;;11.72;66.37
70027;BME280;57506;50.092;15.804;2023-04-12T11:59:05;98224.59;;;11.89;64.93
70027;BME280;57506;50.092;15.804;2023-04-12T12:01:32;98217.41;;;12.01;69.44
70027;BME280;57506;50.092;15.804;2023-04-12T12:03:59;98225.66;;;12.18;67.62
70027;BME280;57506;50.092;15.804;2023-04-12T12:06:25;98215.59;;;11.95;64.94
70027;BME280;57506;50.092;15.804;2023-04-12T12:08:52;98203.72;;;12.14;70.95
70027;BME280;57506;50.092;15.804;2023-04-12T12:11:19;98207.47;;;12.13;66.86
70027;BME280;57506;50.092;15.804;2023-04-12T12:13:55;98209.09;;;12.33;68.91
70027;BME280;57506;50.092;15.804;2023-04-12T12:16:25;98203.56;;;12.39;64.86
70027;BME280;57506;50.092;15.804;2023-04-12T12:18:52;98195.88;;;12.54;70.36
70027;BME280;57506;50.092;15.804;2023-04-12T12:21:18;98199.75;;;12.58;70.03
70027;BME280;57506;50.092;15.804;2023-04-12T12:23:45;98193.53;;;12.58;64.18
70027;BME280;57506;50.092;15.804;2023-04-12T12:26:26;98185.50;;;12.51;63.69
70027;BME280;57506;50.092;15.804;2023-04-12T12:28:54;98179.88;;;12.53;67.22
70027;BME280;57506;50.092;15.804;2023-04-12T12:31:24;98172.44;;;12.78;69.24
70027;BME280;57506;50.092;15.804;2023-04-12T12:33:59;98181.47;;;12.72;67.69
70027;BME280;57506;50.092;15.804;2023-04-12T12:36:31;98163.44;;;12.54;65.89
70027;BME280;57506;50.092;15.804;2023-04-12T12:39:03;98174.84;;;12.56;61.69
70027;BME280;57506;50.092;15.804;2023-04-12T12:41:31;98161.09;;;12.58;67.40
70027;BME280;57506;50.092;15.804;2023-04-12T12:43:56;98152.00;;;12.94;58.40
70027;BME280;57506;50.092;15.804;2023-04-12T12:46:22;98146.94;;;13.09;64.40
70027;BME280;57506;50.092;15.804;2023-04-12T12:48:47;98145.06;;;13.10;64.13
70027;BME280;57506;50.092;15.804;2023-04-12T12:51:14;98143.28;;;12.80;59.38
70027;BME280;57506;50.092;15.804;2023-04-12T12:53:44;98135.41;;;12.79;56.06
70027;BME280;57506;50.092;15.804;2023-04-12T12:56:11;98124.31;;;12.69;56.53
70027;BME280;57506;50.092;15.804;2023-04-12T12:58:38;98127.66;;;12.82;63.18
70027;BME280;57506;50.092;15.804;2023-04-12T13:01:04;98125.78;;;13.29;57.16
70027;BME280;57506;50.092;15.804;2023-04-12T13:03:30;98116.13;;;13.45;57.49
70027;BME280;57506;50.092;15.804;2023-04-12T13:05:56;98113.88;;;13.42;54.06
70027;BME280;57506;50.092;15.804;2023-04-12T13:08:22;98118.31;;;13.48;55.00
70027;BME280;57506;50.092;15.804;2023-04-12T13:10:48;98112.72;;;13.38;60.08
70027;BME280;57506;50.092;15.804;2023-04-12T13:13:14;98102.81;;;13.32;64.14
70027;BME280;57506;50.092;15.804;2023-04-12T13:15:40;98094.38;;;13.17;59.46
70027;BME280;57506;50.092;15.804;2023-04-12T13:18:05;98091.91;;;13.15;59.79
70027;BME280;57506;50.092;15.804;2023-04-12T13:20:33;98079.91;;;13.23;61.14
70027;BME280;57506;50.092;15.804;2023-04-12T13:22:58;98080.50;;;13.25;58.24
70027;BME280;57506;50.092;15.804;2023-04-12T13:25:25;98074.13;;;13.08;60.92